Ashland, Alabama
Current Conditions -  °F | °C
As of 3:53 PM on Tuesday 21 Oct 2014 (Local Time) from KANB Reporting Station
Clear Clear  
Wind Chill: 76°   Ceiling: Unl
Heat Index: 76°   Visibility: 10mi
Dew Point: 50°   Wind: 10mph
Humidity: 40%   Direction: 320°NW
Pressure: 29.98"   Gusts: NA
Location:  33.27°N, 85.84°W
Report Text: KANB 212053Z AUTO 32009KT 10SM CLR 24/10 A2998 RMK AO2 SLP150 T02440100 55011
Loading
Personal Weather Stations






























Interactive Weather Map
Tropical Storm Tracking
New forecast layout! Learn more

10-Day Weather Forecast

Advertisements
Track Severe Weather on mobile